HBA weather

Hobart International Airport
Hobart, Tasmania, Australia

Public forecast

Using degrees Celsius for public forecast. Weather courtesy of forecast.io.

METAR (pilot weather report)

Retrieved 2019/04/22 08:30 UTC (2 minutes ago):

YMHB 220830Z 25007KT 9999 FEW050 14/05 Q1025

TAF (pilot weather forecast)

Retrieved 2019/04/22 06:36 UTC (2 hours ago):

TAF YMHB 220523Z 2206/2306 30014KT 9999 FEW050 FM220900 32008KT 9999 FEW030 FM230400 28008KT 9999 SCT030